Chicago, IL (60677)

1:08 PM CDT on July 29, 2015 (GMT -0500)
West Loop - Old St. Pats | | Change Station
CLOSE
Current Station
Personal Weather Station
Location: Chicago, IL
Elevation: 548 ft
Nearby Weather Stations

Elev 548 ft 41.88 °N, 87.64 °W | Updated 26 seconds ago

Partly Cloudy
Partly Cloudy
88.8 °F
Feels Like 89 °F
N
2.0
Wind Variable Wind from SE
Gusts 5.0 mph

Today
High -- | Low -- °F
--% Chance of Precip.
Yesterday
High -- | Low -- °F
Precip. -- in
5:41 AM 8:12 PM
Waxing Gibbous, 96% visible
Pressure 29.94 in
Visibility 10.0 miles
Clouds Few 4500 ft
Scattered Clouds 15000 ft
Mostly Cloudy 25000 ft
Heat Index 89 °F
Dew Point 61 °F
Humidity 39%
Rainfall 0.05 in
Snow Depth Not available.
UV 6 out of 12
Pollen .70 out of 12
Air Quality Not available.
Flu Activity Not available.
METAR KMDW 291753Z 30011G14KT 10SM FEW045 SCT150 BKN250 32/13 A2998 RMK AO2 SLP138 T03170133 10317 20256 50006

More Conditions Fewer Conditions

Pressure 29.94 in
Visibility 10.0 miles
Clouds Few 4500 ft
Scattered Clouds 15000 ft
Mostly Cloudy 25000 ft
Heat Index 89 °F
Dew Point 61 °F
Humidity 39%
Rainfall 0.05 in
Snow Depth Not available.
UV 6 out of 12
Pollen .70 out of 12
Air Quality Not available.
Flu Activity Not available.
METAR KMDW 291753Z 30011G14KT 10SM FEW045 SCT150 BKN250 32/13 A2998 RMK AO2 SLP138 T03170133 10317 20256 50006

More Conditions Fewer Conditions

10-Day Weather Forecast

×

Almanac

Astronomy

Jul. 29, 2015 Rise Set
Actual Time
Civil Twilight
Nautical Twilight
Astronomical Twilight
Moon
Length of Visible Light
Length of Day
Tomorrow will be .
, % of the Moon is Illuminated

Today's Extremes

State Highs State Lows

Community

WunderPhotos

Upload Photos

1,842,139 photos uploaded!

WunderBlogs® & News

Nearby

Air Quality

  Air Quality AQ Index Pollutant
Not available.

Snow Depth

Station Depth Elevation

Earthquake Activity

City Distance Mag. Time & Date
Minimum magnitude displayed is 2.5.

Coastal Water Temperatures

Place Temperature

Stations

Nearby Weather Stations

Station Location Temp. Windchill Dew Point Humidity Wind Precip. Elev Updated Type